createdAt,value
2024-05-09T00:00:36.114Z,99536.72
2024-05-09T00:01:10.259Z,99535.13
2024-05-09T00:01:41.098Z,99536.81
2024-05-09T00:02:11.992Z,99534.91
2024-05-09T00:02:43.160Z,99534.25
2024-05-09T00:03:14.096Z,99536.72
2024-05-09T00:03:45.900Z,99540.34
2024-05-09T00:04:16.756Z,99534.34
2024-05-09T00:04:47.757Z,99526.00
2024-05-09T00:05:18.735Z,99537.66
2024-05-09T00:05:49.552Z,99526.75
2024-05-09T00:06:20.345Z,99541.19
2024-05-09T00:06:51.094Z,99528.91
2024-05-09T00:07:21.923Z,99540.47
2024-05-09T00:07:52.700Z,99537.78
2024-05-09T00:08:23.705Z,99536.06
2024-05-09T00:08:54.586Z,99533.50
2024-05-09T00:09:25.395Z,99523.56
2024-05-09T00:09:56.195Z,99529.00
2024-05-09T00:10:35.061Z,99529.78
2024-05-09T00:11:08.560Z,99522.47
2024-05-09T00:11:39.543Z,99531.47
2024-05-09T00:12:10.467Z,99527.09
2024-05-09T00:12:41.312Z,99527.09
2024-05-09T00:13:12.119Z,99525.25
2024-05-09T00:13:42.968Z,99525.16
2024-05-09T00:14:13.868Z,99523.34
2024-05-09T00:14:44.682Z,99528.47
2024-05-09T00:15:15.449Z,99531.16
2024-05-09T00:15:46.206Z,99525.78
2024-05-09T00:16:16.995Z,99524.84
2024-05-09T00:16:48.628Z,99517.69
2024-05-09T00:17:19.588Z,99522.16
2024-05-09T00:17:50.567Z,99525.56
2024-05-09T00:18:21.787Z,99519.50
2024-05-09T00:18:55.451Z,99516.91
2024-05-09T00:19:26.624Z,99515.94
2024-05-09T00:19:57.620Z,99514.78
2024-05-09T00:20:36.449Z,99523.66
2024-05-09T00:21:10.589Z,99520.84
2024-05-09T00:21:44.220Z,99531.34
2024-05-09T00:22:15.071Z,99521.84
2024-05-09T00:22:45.907Z,99525.34
2024-05-09T00:23:16.840Z,99524.38
2024-05-09T00:23:47.662Z,99518.09
2024-05-09T00:24:18.475Z,99526.75
2024-05-09T00:24:49.368Z,99525.88
2024-05-09T00:25:20.115Z,99527.47
2024-05-09T00:25:50.999Z,99529.19
2024-05-09T00:26:23.288Z,99522.25
2024-05-09T00:26:54.089Z,99530.28
2024-05-09T00:27:24.916Z,99535.50
2024-05-09T00:27:55.746Z,99527.59
2024-05-09T00:28:26.535Z,99534.44
2024-05-09T00:28:57.456Z,99523.75
2024-05-09T00:29:28.332Z,99526.44
2024-05-09T00:29:59.284Z,99518.63
2024-05-09T00:30:34.218Z,99529.97
2024-05-09T00:31:07.202Z,99528.00
2024-05-09T00:31:38.009Z,99528.09
2024-05-09T00:32:08.936Z,99529.19
2024-05-09T00:32:39.848Z,99525.56
2024-05-09T00:33:11.659Z,99530.91
2024-05-09T00:33:42.944Z,99524.94
2024-05-09T00:34:14.096Z,99533.59
2024-05-09T00:34:45.086Z,99529.19
2024-05-09T00:35:16.152Z,99527.38
2024-05-09T00:35:46.970Z,99532.72
2024-05-09T00:36:17.812Z,99536.38
2024-05-09T00:36:48.619Z,99532.09
2024-05-09T00:37:20.827Z,99532.72
2024-05-09T00:37:51.788Z,99532.81
2024-05-09T00:38:22.718Z,99539.25
2024-05-09T00:38:53.559Z,99534.78
2024-05-09T00:39:24.530Z,99526.75
2024-05-09T00:39:55.328Z,99531.00
2024-05-09T00:40:35.713Z,99533.81
2024-05-09T00:41:10.643Z,99533.06
2024-05-09T00:41:41.514Z,99532.09
2024-05-09T00:42:12.284Z,99530.28
2024-05-09T00:42:45.755Z,99526.22
2024-05-09T00:43:16.655Z,99534.00
2024-05-09T00:43:47.458Z,99529.31
2024-05-09T00:44:18.328Z,99532.81
2024-05-09T00:44:49.123Z,99536.13
2024-05-09T00:45:19.935Z,99533.69
2024-05-09T00:45:50.870Z,99527.38
2024-05-09T00:46:21.764Z,99525.56
2024-05-09T00:46:54.233Z,99533.59
2024-05-09T00:47:25.388Z,99532.97
2024-05-09T00:47:58.321Z,99529.31
2024-05-09T00:48:30.345Z,99524.28
2024-05-09T00:49:01.616Z,99539.25
2024-05-09T00:49:32.967Z,99528.56
2024-05-09T00:50:05.595Z,99529.50
2024-05-09T00:50:41.810Z,99530.38
2024-05-09T00:51:13.114Z,99530.38
2024-05-09T00:51:44.661Z,99526.66
2024-05-09T00:52:15.699Z,99534.53
2024-05-09T00:52:47.882Z,99526.09
2024-05-09T00:53:19.051Z,99533.91
2024-05-09T00:53:50.059Z,99531.13
2024-05-09T00:54:22.187Z,99530.28
2024-05-09T00:54:55.406Z,99533.06
2024-05-09T00:55:27.009Z,99531.47
2024-05-09T00:55:58.334Z,99535.63
2024-05-09T00:56:29.296Z,99539.16
2024-05-09T00:57:03.237Z,99537.44
2024-05-09T00:57:34.068Z,99524.53
2024-05-09T00:58:09.004Z,99531.25
2024-05-09T00:58:40.549Z,99530.59
2024-05-09T00:59:11.828Z,99541.06
2024-05-09T00:59:42.897Z,99528.78
2024-05-09T01:00:22.627Z,99535.72
2024-05-09T01:01:02.253Z,99535.72
2024-05-09T01:01:34.195Z,99535.00
2024-05-09T01:02:05.851Z,99542.69
2024-05-09T01:02:38.184Z,99540.97
2024-05-09T01:03:11.284Z,99535.63
2024-05-09T01:03:46.476Z,99538.72
2024-05-09T01:04:18.164Z,99534.34
2024-05-09T01:04:49.479Z,99536.91
2024-05-09T01:05:20.486Z,99544.94
2024-05-09T01:05:51.411Z,99539.59
2024-05-09T01:06:22.254Z,99535.31
2024-05-09T01:06:53.140Z,99532.63
2024-05-09T01:07:24.195Z,99542.47
2024-05-09T01:07:54.983Z,99531.25
2024-05-09T01:08:26.074Z,99539.16
2024-05-09T01:08:56.912Z,99540.13
2024-05-09T01:09:27.713Z,99528.69
2024-05-09T01:09:58.517Z,99534.91
2024-05-09T01:10:34.436Z,99533.09
2024-05-09T01:11:06.828Z,99533.91
2024-05-09T01:11:39.449Z,99540.25
2024-05-09T01:12:10.689Z,99538.22
2024-05-09T01:12:41.507Z,99538.31
2024-05-09T01:13:12.514Z,99534.13
2024-05-09T01:13:46.329Z,99540.13
2024-05-09T01:14:17.245Z,99534.69
2024-05-09T01:14:48.060Z,99534.78
2024-05-09T01:15:18.876Z,99542.16
2024-05-09T01:15:51.886Z,99540.47
2024-05-09T01:16:22.653Z,99543.78
2024-05-09T01:16:53.735Z,99541.19
2024-05-09T01:17:25.220Z,99540.34
2024-05-09T01:17:57.974Z,99533.41
2024-05-09T01:18:29.292Z,99538.75
2024-05-09T01:19:03.384Z,99540.56
2024-05-09T01:19:35.480Z,99542.16
2024-05-09T01:20:10.644Z,99541.31
2024-05-09T01:20:45.305Z,99537.03
2024-05-09T01:21:16.562Z,99545.69
2024-05-09T01:21:47.383Z,99538.63
2024-05-09T01:22:18.322Z,99538.00
2024-05-09T01:22:51.595Z,99537.03
2024-05-09T01:23:22.599Z,99538.75
2024-05-09T01:23:53.436Z,99540.56
2024-05-09T01:24:24.288Z,99537.13
2024-05-09T01:24:55.055Z,99543.34
2024-05-09T01:25:25.867Z,99537.91
2024-05-09T01:25:56.663Z,99545.69
2024-05-09T01:26:27.541Z,99539.72
2024-05-09T01:26:58.707Z,99541.31
2024-05-09T01:27:30.075Z,99532.63
2024-05-09T01:28:01.250Z,99535.22
2024-05-09T01:28:32.082Z,99541.94
2024-05-09T01:29:03.047Z,99534.91
2024-05-09T01:29:33.889Z,99542.78
2024-05-09T01:30:09.176Z,99535.94
2024-05-09T01:30:40.393Z,99537.66
2024-05-09T01:31:14.744Z,99539.50
2024-05-09T01:31:47.133Z,99543.03
2024-05-09T01:32:18.094Z,99536.94
2024-05-09T01:32:49.297Z,99539.38
2024-05-09T01:33:20.552Z,99538.53
2024-05-09T01:33:51.647Z,99542.06
2024-05-09T01:34:22.652Z,99540.25
2024-05-09T01:34:53.680Z,99543.78
2024-05-09T01:35:24.568Z,99541.94
2024-05-09T01:35:55.512Z,99545.47
2024-05-09T01:36:26.326Z,99536.59
2024-05-09T01:36:57.203Z,99535.53
2024-05-09T01:37:28.003Z,99546.25
2024-05-09T01:37:58.896Z,99538.22
2024-05-09T01:38:29.771Z,99533.19
2024-05-09T01:39:00.621Z,99540.88
2024-05-09T01:39:31.432Z,99544.41
2024-05-09T01:40:02.818Z,99536.50
2024-05-09T01:40:38.445Z,99533.81
2024-05-09T01:41:10.951Z,99538.22
2024-05-09T01:41:41.757Z,99531.25
2024-05-09T01:42:12.620Z,99542.94
2024-05-09T01:42:43.468Z,99538.44
2024-05-09T01:43:17.682Z,99542.56
2024-05-09T01:43:48.502Z,99544.75
2024-05-09T01:44:19.577Z,99537.66
2024-05-09T01:44:50.339Z,99541.31
2024-05-09T01:45:21.118Z,99546.34
2024-05-09T01:45:51.972Z,99545.38
2024-05-09T01:46:22.787Z,99541.09
2024-05-09T01:46:53.576Z,99542.94
2024-05-09T01:47:24.474Z,99541.94
2024-05-09T01:47:55.592Z,99542.69
2024-05-09T01:48:26.779Z,99547.28
2024-05-09T01:48:58.048Z,99539.38
2024-05-09T01:49:34.061Z,99538.44
2024-05-09T01:50:08.932Z,99539.25
2024-05-09T01:50:43.127Z,99530.81
2024-05-09T01:51:14.603Z,99543.25
2024-05-09T01:51:45.498Z,99535.94
2024-05-09T01:52:16.261Z,99538.84
2024-05-09T01:52:47.198Z,99543.97
2024-05-09T01:53:18.198Z,99533.72
2024-05-09T01:53:48.997Z,99539.81
2024-05-09T01:54:19.764Z,99534.34
2024-05-09T01:54:50.699Z,99534.34
2024-05-09T01:55:21.548Z,99542.28
2024-05-09T01:55:52.409Z,99539.94
2024-05-09T01:56:23.236Z,99542.59
2024-05-09T01:56:54.047Z,99524.97
2024-05-09T01:57:24.813Z,99535.53
2024-05-09T01:57:55.656Z,99543.47
2024-05-09T01:58:27.287Z,99522.28
2024-05-09T01:58:58.126Z,99535.53
2024-05-09T01:59:29.123Z,99533.72
2024-05-09T01:59:59.956Z,99533.63
2024-05-09T02:00:38.316Z,99530.19
2024-05-09T02:01:12.181Z,99532.88
2024-05-09T02:01:56.187Z,99531.13
2024-05-09T02:02:28.625Z,99529.22
2024-05-09T02:02:59.661Z,99529.31
2024-05-09T02:03:30.688Z,99527.63
2024-05-09T02:04:02.096Z,99521.53
2024-05-09T02:04:33.266Z,99516.31
2024-05-09T02:05:04.777Z,99525.06
2024-05-09T02:05:35.825Z,99519.94
2024-05-09T02:06:06.924Z,99517.34
2024-05-09T02:06:41.233Z,99523.56
2024-05-09T02:07:12.099Z,99519.81
2024-05-09T02:07:42.960Z,99514.69
2024-05-09T02:08:16.051Z,99509.97
2024-05-09T02:08:46.965Z,99514.69
2024-05-09T02:09:17.779Z,99526.13
2024-05-09T02:09:51.972Z,99515.00
2024-05-09T02:10:26.479Z,99522.91
2024-05-09T02:11:03.277Z,99511.69
2024-05-09T02:11:43.291Z,99521.19
2024-05-09T02:12:14.421Z,99514.34
2024-05-09T02:12:45.349Z,99504.66
2024-05-09T02:13:16.656Z,99519.59
2024-05-09T02:13:47.702Z,99517.38
2024-05-09T02:14:21.533Z,99510.94
2024-05-09T02:14:52.345Z,99513.63
2024-05-09T02:15:23.109Z,99508.28
2024-05-09T02:15:55.225Z,99519.94
2024-05-09T02:16:25.974Z,99510.31
2024-05-09T02:16:57.253Z,99510.31
2024-05-09T02:17:28.324Z,99507.72
2024-05-09T02:17:59.451Z,99512.97
2024-05-09T02:18:30.618Z,99521.88
2024-05-09T02:19:01.672Z,99513.72
2024-05-09T02:19:33.065Z,99507.50
2024-05-09T02:20:06.031Z,99512.97
2024-05-09T02:20:39.804Z,99506.03
2024-05-09T02:21:10.836Z,99507.84
2024-05-09T02:21:41.772Z,99522.09
2024-05-09T02:22:12.577Z,99509.53
2024-05-09T02:22:43.425Z,99515.88
2024-05-09T02:23:14.386Z,99516.06
2024-05-09T02:23:45.247Z,99508.25
2024-05-09T02:24:16.069Z,99510.72
2024-05-09T02:24:46.897Z,99513.28
2024-05-09T02:25:20.820Z,99504.41
2024-05-09T02:25:51.607Z,99515.97
2024-05-09T02:26:22.656Z,99508.03
2024-05-09T02:26:53.500Z,99517.91
2024-05-09T02:27:24.275Z,99504.00
2024-05-09T02:27:55.097Z,99509.13
2024-05-09T02:28:25.887Z,99514.47
2024-05-09T02:28:56.800Z,99517.28
2024-05-09T02:29:27.729Z,99515.53
2024-05-09T02:29:58.605Z,99514.47
2024-05-09T02:30:36.436Z,99515.41
2024-05-09T02:31:12.231Z,99520.97
2024-05-09T02:31:43.513Z,99510.28
2024-05-09T02:32:14.509Z,99520.91
2024-05-09T02:32:45.612Z,99513.59
2024-05-09T02:33:16.667Z,99519.16
2024-05-09T02:33:47.922Z,99514.03
2024-05-09T02:34:19.120Z,99516.72
2024-05-09T02:34:50.042Z,99514.78
2024-05-09T02:35:20.879Z,99513.09
2024-05-09T02:35:51.697Z,99513.94
2024-05-09T02:36:22.541Z,99509.56
2024-05-09T02:36:56.007Z,99512.31
2024-05-09T02:37:26.821Z,99506.97
2024-05-09T02:37:57.647Z,99513.09
2024-05-09T02:38:28.554Z,99502.72
2024-05-09T02:38:59.340Z,99509.78
2024-05-09T02:39:30.089Z,99503.44
2024-05-09T02:40:00.905Z,99507.09
2024-05-09T02:40:37.020Z,99510.50
2024-05-09T02:41:09.869Z,99505.59
2024-05-09T02:41:40.680Z,99509.13
2024-05-09T02:42:11.503Z,99513.63
2024-05-09T02:42:42.470Z,99505.59
2024-05-09T02:43:13.423Z,99515.22
2024-05-09T02:43:44.223Z,99508.28
2024-05-09T02:44:15.078Z,99510.19
2024-05-09T02:44:45.957Z,99508.50
2024-05-09T02:45:16.730Z,99504.75
2024-05-09T02:45:47.675Z,99510.81
2024-05-09T02:46:18.440Z,99507.72
2024-05-09T02:46:49.308Z,99508.81
2024-05-09T02:47:20.346Z,99513.16
2024-05-09T02:47:51.324Z,99509.66
2024-05-09T02:48:22.515Z,99514.88
2024-05-09T02:48:53.483Z,99507.81
2024-05-09T02:49:24.586Z,99513.28
2024-05-09T02:49:55.597Z,99514.03
2024-05-09T02:50:33.944Z,99508.03
2024-05-09T02:51:09.250Z,99512.94
2024-05-09T02:51:40.158Z,99511.88
2024-05-09T02:52:10.934Z,99510.28
2024-05-09T02:52:41.713Z,99515.53
2024-05-09T02:53:13.802Z,99514.75
2024-05-09T02:53:45.033Z,99521.69
2024-05-09T02:54:15.861Z,99515.63
2024-05-09T02:54:46.617Z,99519.25
2024-05-09T02:55:17.391Z,99511.56
2024-05-09T02:55:48.275Z,99517.72
2024-05-09T02:56:19.244Z,99512.41
2024-05-09T02:56:50.068Z,99516.91
2024-05-09T02:57:20.864Z,99519.59
2024-05-09T02:57:51.624Z,99528.53
2024-05-09T02:58:22.450Z,99517.84
2024-05-09T02:58:53.293Z,99525.97
2024-05-09T02:59:24.223Z,99525.09
2024-05-09T02:59:55.053Z,99525.97
2024-05-09T03:00:30.004Z,99519.66
2024-05-09T03:01:08.487Z,99524.25
2024-05-09T03:01:39.444Z,99525.09
2024-05-09T03:02:10.442Z,99526.91
2024-05-09T03:02:44.771Z,99522.56
2024-05-09T03:03:16.015Z,99520.09
2024-05-09T03:03:49.297Z,99519.97
2024-05-09T03:04:20.187Z,99522.66
2024-05-09T03:04:51.087Z,99528.00
2024-05-09T03:05:22.134Z,99525.44
2024-05-09T03:05:52.980Z,99522.28
2024-05-09T03:06:23.791Z,99525.53
2024-05-09T03:06:54.576Z,99528.13
2024-05-09T03:07:25.435Z,99529.91
2024-05-09T03:07:56.321Z,99533.34
2024-05-09T03:08:27.423Z,99524.47
2024-05-09T03:08:59.866Z,99527.03
2024-05-09T03:09:30.662Z,99521.91
2024-05-09T03:10:01.430Z,99534.28
2024-05-09T03:10:35.835Z,99522.78
2024-05-09T03:11:08.789Z,99530.78
2024-05-09T03:11:39.859Z,99520.19
2024-05-09T03:12:10.816Z,99526.38
2024-05-09T03:12:41.767Z,99536.13
2024-05-09T03:13:14.832Z,99529.16
2024-05-09T03:13:46.773Z,99523.72
2024-05-09T03:14:18.345Z,99522.84
2024-05-09T03:14:49.711Z,99523.72
2024-05-09T03:15:23.405Z,99531.53
2024-05-09T03:15:54.222Z,99530.56
2024-05-09T03:16:25.000Z,99522.44
2024-05-09T03:16:55.865Z,99513.69
2024-05-09T03:17:26.851Z,99525.09
2024-05-09T03:17:58.939Z,99523.41
2024-05-09T03:18:29.891Z,99520.75
2024-05-09T03:19:00.825Z,99523.50
2024-05-09T03:19:34.238Z,99515.59
2024-05-09T03:20:11.509Z,99517.22
2024-05-09T03:20:45.628Z,99522.44
2024-05-09T03:21:16.579Z,99519.75
2024-05-09T03:21:47.390Z,99516.13
2024-05-09T03:22:18.166Z,99521.41
2024-05-09T03:22:48.995Z,99515.41
2024-05-09T03:23:19.832Z,99515.28
2024-05-09T03:23:50.751Z,99518.06
2024-05-09T03:24:21.613Z,99514.31
2024-05-09T03:24:52.496Z,99518.81
2024-05-09T03:25:23.331Z,99517.84
2024-05-09T03:25:54.369Z,99524.94
2024-05-09T03:26:25.764Z,99523.09
2024-05-09T03:26:56.589Z,99524.06
2024-05-09T03:27:27.557Z,99517.84
2024-05-09T03:27:59.856Z,99521.28
2024-05-09T03:28:30.655Z,99520.41
2024-05-09T03:29:01.494Z,99520.41
2024-05-09T03:29:32.553Z,99526.63
2024-05-09T03:30:05.517Z,99531.75
2024-05-09T03:30:41.840Z,99522.03
2024-05-09T03:31:17.559Z,99524.81
2024-05-09T03:31:48.365Z,99516.91
2024-05-09T03:32:19.246Z,99532.72
2024-05-09T03:32:50.253Z,99529.19
2024-05-09T03:33:21.465Z,99522.91
2024-05-09T03:33:52.921Z,99530.78
2024-05-09T03:34:23.950Z,99532.59
2024-05-09T03:34:54.779Z,99537.00
2024-05-09T03:35:25.731Z,99535.19
2024-05-09T03:35:56.588Z,99536.03
2024-05-09T03:36:27.381Z,99540.63
2024-05-09T03:36:58.180Z,99541.38
2024-05-09T03:37:29.028Z,99536.91
2024-05-09T03:37:59.832Z,99539.56
2024-05-09T03:38:36.194Z,99535.06
2024-05-09T03:39:09.870Z,99538.72
2024-05-09T03:39:40.651Z,99549.50
2024-05-09T03:40:20.709Z,99536.91
2024-05-09T03:40:54.672Z,99537.63
2024-05-09T03:41:25.511Z,99533.38
2024-05-09T03:41:56.414Z,99534.31
2024-05-09T03:42:27.271Z,99536.13
2024-05-09T03:42:58.054Z,99540.53
2024-05-09T03:43:28.819Z,99537.84
2024-05-09T03:43:59.858Z,99541.38
2024-05-09T03:44:30.787Z,99528.88
2024-05-09T03:45:01.721Z,99532.38
2024-05-09T03:45:32.491Z,99536.69
2024-05-09T03:46:03.421Z,99532.38
2024-05-09T03:46:40.485Z,99539.44
2024-05-09T03:47:11.296Z,99533.25
2024-05-09T03:47:42.517Z,99541.25
2024-05-09T03:48:13.860Z,99530.91
2024-05-09T03:48:44.970Z,99537.72
2024-05-09T03:49:16.862Z,99542.03
2024-05-09T03:49:47.765Z,99536.69
2024-05-09T03:50:26.356Z,99536.78
2024-05-09T03:51:04.440Z,99542.25
2024-05-09T03:51:35.339Z,99541.16
2024-05-09T03:52:06.162Z,99539.44
2024-05-09T03:52:36.947Z,99537.84
2024-05-09T03:53:11.970Z,99538.94
2024-05-09T03:53:42.781Z,99539.66
2024-05-09T03:54:13.568Z,99543.06
2024-05-09T03:54:47.676Z,99537.94
2024-05-09T03:55:18.794Z,99543.19
2024-05-09T03:55:49.588Z,99538.59
2024-05-09T03:56:20.471Z,99542.91
2024-05-09T03:56:51.306Z,99537.63
2024-05-09T03:57:22.144Z,99543.63
2024-05-09T03:57:53.012Z,99544.50
2024-05-09T03:58:23.788Z,99535.06
2024-05-09T03:58:54.905Z,99537.00
2024-05-09T03:59:25.926Z,99533.25
2024-05-09T03:59:56.750Z,99542.03
2024-05-09T04:00:35.225Z,99547.38
2024-05-09T04:01:09.383Z,99534.66
2024-05-09T04:01:40.282Z,99538.19
2024-05-09T04:02:11.202Z,99542.47
2024-05-09T04:02:42.564Z,99537.97
2024-05-09T04:03:14.043Z,99536.16
2024-05-09T04:03:45.291Z,99550.19
2024-05-09T04:04:16.185Z,99544.06
2024-05-09T04:04:47.054Z,99547.72
2024-05-09T04:05:17.954Z,99545.03
2024-05-09T04:05:48.815Z,99548.56
2024-05-09T04:06:22.340Z,99548.38
2024-05-09T04:06:53.122Z,99552.84
2024-05-09T04:07:23.898Z,99544.91
2024-05-09T04:07:54.791Z,99543.31
2024-05-09T04:08:25.648Z,99551.03
2024-05-09T04:08:56.435Z,99551.03
2024-05-09T04:09:27.617Z,99551.25
2024-05-09T04:09:58.420Z,99555.41
2024-05-09T04:10:33.343Z,99546.72
2024-05-09T04:11:06.058Z,99552.94
2024-05-09T04:11:36.953Z,99554.00
2024-05-09T04:12:07.958Z,99552.19
2024-05-09T04:12:38.851Z,99555.53
2024-05-09T04:13:09.843Z,99552.84
2024-05-09T04:13:40.926Z,99557.25
2024-05-09T04:14:11.892Z,99554.75
2024-05-09T04:14:42.834Z,99547.72
2024-05-09T04:15:14.122Z,99552.06
2024-05-09T04:15:44.929Z,99551.91
2024-05-09T04:16:15.772Z,99555.53
2024-05-09T04:16:46.606Z,99554.56
2024-05-09T04:17:17.474Z,99553.91
2024-05-09T04:17:50.312Z,99560.75
2024-05-09T04:18:21.278Z,99555.41
2024-05-09T04:18:52.295Z,99555.53
2024-05-09T04:19:23.449Z,99552.19
2024-05-09T04:19:54.770Z,99553.16
2024-05-09T04:20:36.001Z,99552.19
2024-05-09T04:21:10.369Z,99553.72
2024-05-09T04:21:41.258Z,99553.59
2024-05-09T04:22:12.088Z,99560.75
2024-05-09T04:22:42.907Z,99554.75
2024-05-09T04:23:14.487Z,99553.91
2024-05-09T04:23:45.646Z,99556.25
2024-05-09T04:24:16.480Z,99557.41
2024-05-09T04:24:47.595Z,99559.34
2024-05-09T04:25:18.384Z,99552.06
2024-05-09T04:25:49.263Z,99560.09
2024-05-09T04:26:20.133Z,99558.28
2024-05-09T04:26:50.965Z,99555.72
2024-05-09T04:27:21.725Z,99555.91
2024-05-09T04:27:54.693Z,99561.38
2024-05-09T04:28:25.471Z,99554.66
2024-05-09T04:28:56.269Z,99559.91
2024-05-09T04:29:27.222Z,99562.59
2024-05-09T04:29:58.089Z,99561.81
2024-05-09T04:30:36.639Z,99560.00
2024-05-09T04:31:10.461Z,99561.38
2024-05-09T04:31:41.236Z,99572.84
2024-05-09T04:32:12.191Z,99567.41
2024-05-09T04:32:43.182Z,99562.38
2024-05-09T04:33:14.961Z,99570.91
2024-05-09T04:33:46.601Z,99566.72
2024-05-09T04:34:18.000Z,99566.53
2024-05-09T04:34:48.884Z,99562.16
2024-05-09T04:35:21.372Z,99569.88
2024-05-09T04:35:52.205Z,99566.44
2024-05-09T04:36:23.048Z,99567.50
2024-05-09T04:36:53.817Z,99563.97
2024-05-09T04:37:25.230Z,99563.97
2024-05-09T04:37:56.038Z,99570.09
2024-05-09T04:38:28.895Z,99567.41
2024-05-09T04:38:59.713Z,99568.88
2024-05-09T04:39:30.519Z,99568.88
2024-05-09T04:40:01.294Z,99561.06
2024-05-09T04:40:35.384Z,99562.88
2024-05-09T04:41:07.840Z,99573.59
2024-05-09T04:41:38.772Z,99565.69
2024-05-09T04:42:09.592Z,99564.53
2024-05-09T04:42:40.684Z,99566.44
2024-05-09T04:43:16.052Z,99566.44
2024-05-09T04:43:49.709Z,99569.97
2024-05-09T04:44:20.658Z,99576.06
2024-05-09T04:44:54.126Z,99572.53
2024-05-09T04:45:26.524Z,99577.75
2024-05-09T04:45:57.295Z,99572.41
2024-05-09T04:46:28.039Z,99578.53
2024-05-09T04:46:58.975Z,99577.03
2024-05-09T04:47:30.038Z,99575.31
2024-05-09T04:48:01.664Z,99579.78
2024-05-09T04:48:33.035Z,99578.75
2024-05-09T04:49:04.028Z,99575.84
2024-05-09T04:49:35.155Z,99576.16
2024-05-09T04:50:08.831Z,99588.22
2024-05-09T04:50:42.287Z,99577.75
2024-05-09T04:51:13.363Z,99582.59
2024-05-09T04:51:44.217Z,99578.09
2024-05-09T04:52:14.994Z,99581.50
2024-05-09T04:52:45.823Z,99587.41
2024-05-09T04:53:17.072Z,99594.56
2024-05-09T04:53:48.149Z,99582.06
2024-05-09T04:54:30.011Z,99584.81
2024-05-09T04:55:06.741Z,99588.34
2024-05-09T04:55:37.856Z,99587.41
2024-05-09T04:56:08.676Z,99584.31
2024-05-09T04:56:39.580Z,99587.84
2024-05-09T04:57:10.454Z,99597.47
2024-05-09T04:57:41.243Z,99588.56
2024-05-09T04:58:12.214Z,99595.56
2024-05-09T04:58:43.123Z,99590.50
2024-05-09T04:59:13.919Z,99593.06
2024-05-09T04:59:44.778Z,99593.91
2024-05-09T05:00:21.832Z,99593.06
2024-05-09T05:00:59.512Z,99589.97
2024-05-09T05:01:30.358Z,99589.75
2024-05-09T05:02:01.378Z,99589.00
2024-05-09T05:02:32.257Z,99588.91
2024-05-09T05:03:12.609Z,99586.13
2024-05-09T05:03:46.316Z,99596.94
2024-05-09T05:04:17.403Z,99596.94
2024-05-09T05:04:48.508Z,99591.47
2024-05-09T05:05:19.354Z,99586.44
2024-05-09T05:05:50.273Z,99586.34
2024-05-09T05:06:21.272Z,99595.31
2024-05-09T05:06:52.023Z,99595.09
2024-05-09T05:07:22.802Z,99595.94
2024-05-09T05:07:53.600Z,99589.88
2024-05-09T05:08:24.400Z,99595.00
2024-05-09T05:08:55.497Z,99594.25
2024-05-09T05:09:26.261Z,99596.59
2024-05-09T05:09:57.036Z,99595.72
2024-05-09T05:10:33.665Z,99598.53
2024-05-09T05:11:07.347Z,99598.63
2024-05-09T05:11:38.273Z,99590.81
2024-05-09T05:12:29.204Z,99598.53
2024-05-09T05:13:15.628Z,99602.06
2024-05-09T05:13:50.067Z,99600.25
2024-05-09T05:14:20.997Z,99599.25
2024-05-09T05:14:51.807Z,99599.25
2024-05-09T05:15:22.682Z,99594.91
2024-05-09T05:15:57.868Z,99598.53
2024-05-09T05:16:29.275Z,99592.09
2024-05-09T05:17:00.067Z,99594.69
2024-05-09T05:17:31.166Z,99593.28
2024-05-09T05:18:02.265Z,99595.56
2024-05-09T05:18:33.260Z,99602.06
2024-05-09T05:19:05.319Z,99601.94
2024-05-09T05:19:38.146Z,99593.28
2024-05-09T05:20:12.723Z,99596.81
2024-05-09T05:20:46.051Z,99598.31
2024-05-09T05:21:17.051Z,99601.09
2024-05-09T05:21:47.825Z,99591.47
2024-05-09T05:22:18.689Z,99594.13
2024-05-09T05:22:49.567Z,99603.66
2024-05-09T05:23:21.578Z,99597.59
2024-05-09T05:23:52.542Z,99601.41
2024-05-09T05:24:23.350Z,99594.91
2024-05-09T05:24:54.105Z,99590.38
2024-05-09T05:25:24.902Z,99593.81
2024-05-09T05:25:55.997Z,99587.63
2024-05-09T05:26:27.010Z,99591.06
2024-05-09T05:26:57.828Z,99587.84
2024-05-09T05:27:29.806Z,99592.97
2024-05-09T05:28:00.686Z,99599.25
2024-05-09T05:28:31.490Z,99596.59
2024-05-09T05:29:02.312Z,99596.50
2024-05-09T05:29:33.170Z,99599.72
2024-05-09T05:30:07.381Z,99598.88
2024-05-09T05:30:41.033Z,99596.81
2024-05-09T05:31:13.615Z,99598.31
2024-05-09T05:31:44.649Z,99592.09
2024-05-09T05:32:15.838Z,99590.72
2024-05-09T05:32:46.901Z,99596.06
2024-05-09T05:33:17.915Z,99600.13
2024-05-09T05:33:49.207Z,99598.41
2024-05-09T05:34:20.091Z,99590.28
2024-05-09T05:34:50.919Z,99603.44
2024-05-09T05:35:21.898Z,99603.34
2024-05-09T05:35:52.725Z,99600.38
2024-05-09T05:36:23.583Z,99602.81
2024-05-09T05:36:54.578Z,99600.78
2024-05-09T05:37:25.345Z,99603.34
2024-05-09T05:37:56.210Z,99603.47
2024-05-09T05:38:28.395Z,99601.66
2024-05-09T05:38:59.602Z,99606.88
2024-05-09T05:39:30.489Z,99605.94
2024-05-09T05:40:01.230Z,99603.34
2024-05-09T05:40:36.612Z,99600.66
2024-05-09T05:41:09.237Z,99603.56
2024-05-09T05:41:40.061Z,99606.16
2024-05-09T05:42:10.969Z,99616.06
2024-05-09T05:42:42.021Z,99608.50
2024-05-09T05:43:17.287Z,99608.41
2024-05-09T05:43:48.115Z,99608.19
2024-05-09T05:44:19.034Z,99610.53
2024-05-09T05:44:50.007Z,99602.59
2024-05-09T05:45:20.836Z,99612.44
2024-05-09T05:45:51.615Z,99610.53
2024-05-09T05:46:22.541Z,99605.06
2024-05-09T05:46:53.391Z,99608.59
2024-05-09T05:47:24.407Z,99618.34
2024-05-09T05:47:55.902Z,99615.66
2024-05-09T05:48:27.225Z,99609.91
2024-05-09T05:48:58.158Z,99613.31
2024-05-09T05:49:29.120Z,99617.16
2024-05-09T05:49:59.933Z,99617.06
2024-05-09T05:50:35.563Z,99615.03
2024-05-09T05:51:08.437Z,99607.75
2024-05-09T05:51:39.245Z,99614.91
2024-05-09T05:52:11.238Z,99612.56
2024-05-09T05:52:42.393Z,99617.91
2024-05-09T05:53:13.484Z,99613.31
2024-05-09T05:53:45.153Z,99612.56
2024-05-09T05:54:15.933Z,99621.41
2024-05-09T05:54:50.766Z,99607.09
2024-05-09T05:55:21.730Z,99611.59
2024-05-09T05:55:52.610Z,99607.00
2024-05-09T05:56:25.059Z,99621.25
2024-05-09T05:56:57.500Z,99612.34
2024-05-09T05:57:28.396Z,99614.91
2024-05-09T05:58:00.556Z,99620.38
2024-05-09T05:58:31.382Z,99619.38
2024-05-09T05:59:02.312Z,99625.50
2024-05-09T05:59:33.397Z,99625.59
2024-05-09T06:00:09.395Z,99628.19
2024-05-09T06:00:41.620Z,99623.91
2024-05-09T06:01:13.254Z,99619.59
2024-05-09T06:01:44.311Z,99620.16
2024-05-09T06:02:15.195Z,99626.16
2024-05-09T06:02:46.212Z,99623.47
2024-05-09T06:03:17.178Z,99619.00
2024-05-09T06:03:48.123Z,99613.84
2024-05-09T06:04:18.982Z,99622.53
2024-05-09T06:04:49.896Z,99621.03
2024-05-09T06:05:20.762Z,99620.25
2024-05-09T06:05:51.589Z,99618.66
2024-05-09T06:06:22.437Z,99613.22
2024-05-09T06:06:53.264Z,99614.03
2024-05-09T06:07:24.059Z,99611.19
2024-05-09T06:07:54.948Z,99616.31
2024-05-09T06:08:28.874Z,99621.88
2024-05-09T06:09:00.859Z,99617.06
2024-05-09T06:09:32.452Z,99613.63
2024-05-09T06:10:05.252Z,99618.09
2024-05-09T06:10:40.187Z,99614.47
2024-05-09T06:11:12.205Z,99619.59
2024-05-09T06:11:43.145Z,99623.16
2024-05-09T06:12:14.131Z,99619.22
2024-05-09T06:12:45.007Z,99624.75
2024-05-09T06:13:17.155Z,99624.97
2024-05-09T06:13:48.013Z,99621.13